sensor_id;sensor_type;location;lat;lon;timestamp;pressure;altitude;pressure_sealevel;temperature;humidity
5500;BME280;2772;42.700;23.304;2023-01-31T00:01:04;94682.81;;;3.85;100.00
5500;BME280;2772;42.700;23.304;2023-01-31T00:03:31;94684.97;;;3.73;100.00
5500;BME280;2772;42.700;23.304;2023-01-31T00:05:57;94699.75;;;3.69;100.00
5500;BME280;2772;42.700;23.304;2023-01-31T00:08:24;94699.22;;;3.72;100.00
5500;BME280;2772;42.700;23.304;2023-01-31T00:10:51;94692.34;;;3.76;100.00
5500;BME280;2772;42.700;23.304;2023-01-31T00:13:19;94688.63;;;3.82;100.00
5500;BME280;2772;42.700;23.304;2023-01-31T00:15:45;94688.94;;;3.76;100.00
5500;BME280;2772;42.700;23.304;2023-01-31T00:18:12;94687.72;;;3.58;100.00
5500;BME280;2772;42.700;23.304;2023-01-31T00:20:39;94685.19;;;3.43;100.00
5500;BME280;2772;42.700;23.304;2023-01-31T00:23:05;94690.16;;;3.50;100.00
5500;BME280;2772;42.700;23.304;2023-01-31T00:25:32;94688.28;;;3.55;100.00
5500;BME280;2772;42.700;23.304;2023-01-31T00:27:59;94686.03;;;3.34;100.00
5500;BME280;2772;42.700;23.304;2023-01-31T00:30:27;94687.59;;;3.29;100.00
5500;BME280;2772;42.700;23.304;2023-01-31T00:32:53;94681.13;;;3.12;100.00
5500;BME280;2772;42.700;23.304;2023-01-31T00:35:20;94688.03;;;2.98;100.00
5500;BME280;2772;42.700;23.304;2023-01-31T00:37:47;94677.44;;;3.13;100.00
5500;BME280;2772;42.700;23.304;2023-01-31T00:40:14;94687.66;;;3.24;100.00
5500;BME280;2772;42.700;23.304;2023-01-31T00:42:40;94687.59;;;3.35;100.00
5500;BME280;2772;42.700;23.304;2023-01-31T00:45:08;94682.56;;;3.38;100.00
5500;BME280;2772;42.700;23.304;2023-01-31T00:47:37;94683.16;;;3.30;100.00
5500;BME280;2772;42.700;23.304;2023-01-31T00:50:04;94683.88;;;3.41;100.00
5500;BME280;2772;42.700;23.304;2023-01-31T00:52:31;94678.16;;;3.28;100.00
5500;BME280;2772;42.700;23.304;2023-01-31T00:54:58;94673.31;;;3.46;100.00
5500;BME280;2772;42.700;23.304;2023-01-31T00:57:24;94658.25;;;3.56;100.00
5500;BME280;2772;42.700;23.304;2023-01-31T00:59:51;94673.03;;;3.47;100.00
5500;BME280;2772;42.700;23.304;2023-01-31T01:02:18;94671.94;;;3.58;100.00
5500;BME280;2772;42.700;23.304;2023-01-31T01:04:46;94679.84;;;3.53;100.00
5500;BME280;2772;42.700;23.304;2023-01-31T01:07:12;94692.09;;;3.34;100.00
5500;BME280;2772;42.700;23.304;2023-01-31T01:09:39;94687.03;;;3.43;100.00
5500;BME280;2772;42.700;23.304;2023-01-31T01:12:06;94684.34;;;3.53;100.00
5500;BME280;2772;42.700;23.304;2023-01-31T01:14:33;94689.94;;;3.41;100.00
5500;BME280;2772;42.700;23.304;2023-01-31T01:17:00;94697.91;;;3.26;100.00
5500;BME280;2772;42.700;23.304;2023-01-31T01:19:26;94694.47;;;3.25;100.00
5500;BME280;2772;42.700;23.304;2023-01-31T01:21:55;94683.16;;;3.25;100.00
5500;BME280;2772;42.700;23.304;2023-01-31T01:24:23;94684.38;;;3.48;100.00
5500;BME280;2772;42.700;23.304;2023-01-31T01:26:50;94673.72;;;3.19;100.00
5500;BME280;2772;42.700;23.304;2023-01-31T01:29:16;94668.72;;;3.22;100.00
5500;BME280;2772;42.700;23.304;2023-01-31T01:31:43;94679.81;;;3.09;100.00
5500;BME280;2772;42.700;23.304;2023-01-31T01:34:11;94674.84;;;3.03;100.00
5500;BME280;2772;42.700;23.304;2023-01-31T01:36:38;94677.22;;;3.04;100.00
5500;BME280;2772;42.700;23.304;2023-01-31T01:39:08;94678.28;;;3.03;100.00
5500;BME280;2772;42.700;23.304;2023-01-31T01:41:36;94673.72;;;3.19;100.00
5500;BME280;2772;42.700;23.304;2023-01-31T01:44:39;94670.31;;;3.18;100.00
5500;BME280;2772;42.700;23.304;2023-01-31T01:46:50;94679.25;;;3.17;100.00
5500;BME280;2772;42.700;23.304;2023-01-31T01:49:21;94678.72;;;3.15;100.00
5500;BME280;2772;42.700;23.304;2023-01-31T01:51:50;94671.03;;;3.34;100.00
5500;BME280;2772;42.700;23.304;2023-01-31T01:54:33;94680.06;;;3.13;100.00
5500;BME280;2772;42.700;23.304;2023-01-31T01:57:04;94676.41;;;3.09;100.00
5500;BME280;2772;42.700;23.304;2023-01-31T01:59:35;94682.31;;;2.81;100.00
5500;BME280;2772;42.700;23.304;2023-01-31T02:02:04;94670.44;;;2.93;100.00
5500;BME280;2772;42.700;23.304;2023-01-31T02:04:32;94673.63;;;2.85;100.00
5500;BME280;2772;42.700;23.304;2023-01-31T02:06:59;94677.09;;;2.61;100.00
5500;BME280;2772;42.700;23.304;2023-01-31T02:09:38;94692.38;;;2.59;100.00
5500;BME280;2772;42.700;23.304;2023-01-31T02:12:08;94688.94;;;2.53;100.00
5500;BME280;2772;42.700;23.304;2023-01-31T02:14:35;94693.44;;;2.48;100.00
5500;BME280;2772;42.700;23.304;2023-01-31T02:17:02;94690.28;;;2.46;100.00
5500;BME280;2772;42.700;23.304;2023-01-31T02:19:35;94688.72;;;2.45;100.00
5500;BME280;2772;42.700;23.304;2023-01-31T02:22:14;94691.84;;;2.57;100.00
5500;BME280;2772;42.700;23.304;2023-01-31T02:25:07;94685.78;;;2.56;100.00
5500;BME280;2772;42.700;23.304;2023-01-31T02:27:53;94688.38;;;2.71;100.00
5500;BME280;2772;42.700;23.304;2023-01-31T02:30:43;94689.41;;;2.75;100.00
5500;BME280;2772;42.700;23.304;2023-01-31T02:33:22;94694.66;;;2.80;100.00
5500;BME280;2772;42.700;23.304;2023-01-31T02:36:05;94703.59;;;2.84;100.00
5500;BME280;2772;42.700;23.304;2023-01-31T02:38:48;94696.25;;;2.76;100.00
5500;BME280;2772;42.700;23.304;2023-01-31T02:41:27;94698.09;;;2.81;100.00
5500;BME280;2772;42.700;23.304;2023-01-31T02:43:58;94703.84;;;2.88;100.00
5500;BME280;2772;42.700;23.304;2023-01-31T02:46:51;94698.63;;;2.78;100.00
5500;BME280;2772;42.700;23.304;2023-01-31T02:49:27;94705.19;;;2.75;100.00
5500;BME280;2772;42.700;23.304;2023-01-31T02:52:06;94708.66;;;2.56;100.00
5500;BME280;2772;42.700;23.304;2023-01-31T02:54:47;94717.59;;;2.60;100.00
5500;BME280;2772;42.700;23.304;2023-01-31T02:57:34;94726.00;;;2.57;100.00
5500;BME280;2772;42.700;23.304;2023-01-31T03:00:04;94731.25;;;2.62;100.00
5500;BME280;2772;42.700;23.304;2023-01-31T03:02:32;94733.34;;;2.70;100.00
5500;BME280;2772;42.700;23.304;2023-01-31T03:05:00;94740.16;;;2.66;100.00
5500;BME280;2772;42.700;23.304;2023-01-31T03:07:29;94743.31;;;2.63;100.00
5500;BME280;2772;42.700;23.304;2023-01-31T03:10:05;94757.53;;;2.52;100.00
5500;BME280;2772;42.700;23.304;2023-01-31T03:12:42;94759.13;;;2.43;100.00
5500;BME280;2772;42.700;23.304;2023-01-31T03:18:23;94770.69;;;2.42;100.00
5500;BME280;2772;42.700;23.304;2023-01-31T03:20:59;94769.59;;;2.58;100.00
5500;BME280;2772;42.700;23.304;2023-01-31T03:23:28;94764.13;;;2.54;100.00
5500;BME280;2772;42.700;23.304;2023-01-31T03:25:58;94773.81;;;2.49;100.00
5500;BME280;2772;42.700;23.304;2023-01-31T03:28:28;94774.63;;;2.54;100.00
5500;BME280;2772;42.700;23.304;2023-01-31T03:31:00;94779.84;;;2.59;100.00
5500;BME280;2772;42.700;23.304;2023-01-31T03:33:32;94766.19;;;2.67;100.00
5500;BME280;2772;42.700;23.304;2023-01-31T03:36:07;94791.44;;;2.63;100.00
5500;BME280;2772;42.700;23.304;2023-01-31T03:38:45;94779.09;;;2.54;100.00
5500;BME280;2772;42.700;23.304;2023-01-31T03:41:21;94798.00;;;2.56;100.00
5500;BME280;2772;42.700;23.304;2023-01-31T03:43:56;94798.81;;;2.46;100.00
5500;BME280;2772;42.700;23.304;2023-01-31T03:46:27;94808.00;;;2.39;100.00
5500;BME280;2772;42.700;23.304;2023-01-31T03:48:57;94801.94;;;2.33;100.00
5500;BME280;2772;42.700;23.304;2023-01-31T03:51:30;94800.63;;;2.36;100.00
5500;BME280;2772;42.700;23.304;2023-01-31T03:54:00;94808.50;;;2.41;100.00
5500;BME280;2772;42.700;23.304;2023-01-31T03:56:33;94810.63;;;2.49;100.00
5500;BME280;2772;42.700;23.304;2023-01-31T03:59:07;94805.38;;;2.59;100.00
5500;BME280;2772;42.700;23.304;2023-01-31T04:01:40;94804.56;;;2.58;100.00
5500;BME280;2772;42.700;23.304;2023-01-31T04:04:10;94803.25;;;2.61;100.00
5500;BME280;2772;42.700;23.304;2023-01-31T04:06:41;94800.34;;;2.62;100.00
5500;BME280;2772;42.700;23.304;2023-01-31T04:09:07;94799.59;;;2.62;100.00
5500;BME280;2772;42.700;23.304;2023-01-31T04:11:36;94806.16;;;2.44;100.00
5500;BME280;2772;42.700;23.304;2023-01-31T04:14:03;94806.41;;;2.43;100.00
5500;BME280;2772;42.700;23.304;2023-01-31T04:16:30;94804.84;;;2.57;100.00
5500;BME280;2772;42.700;23.304;2023-01-31T04:18:57;94807.19;;;2.33;100.00
5500;BME280;2772;42.700;23.304;2023-01-31T04:21:23;94799.31;;;2.28;100.00
5500;BME280;2772;42.700;23.304;2023-01-31T04:23:51;94792.75;;;2.21;100.00
5500;BME280;2772;42.700;23.304;2023-01-31T04:26:18;94797.19;;;1.95;100.00
5500;BME280;2772;42.700;23.304;2023-01-31T04:28:45;94797.97;;;1.96;100.00
5500;BME280;2772;42.700;23.304;2023-01-31T04:31:11;94805.31;;;1.89;100.00
5500;BME280;2772;42.700;23.304;2023-01-31T04:33:38;94799.53;;;1.87;100.00
5500;BME280;2772;42.700;23.304;2023-01-31T04:36:06;94804.47;;;1.78;100.00
5500;BME280;2772;42.700;23.304;2023-01-31T04:38:33;94806.31;;;1.73;100.00
5500;BME280;2772;42.700;23.304;2023-01-31T04:41:01;94810.22;;;1.65;100.00
5500;BME280;2772;42.700;23.304;2023-01-31T04:43:28;94808.94;;;1.73;100.00
5500;BME280;2772;42.700;23.304;2023-01-31T04:45:54;94810.53;;;1.79;100.00
5500;BME280;2772;42.700;23.304;2023-01-31T04:48:21;94817.81;;;1.56;100.00
5500;BME280;2772;42.700;23.304;2023-01-31T04:50:48;94843.00;;;1.62;100.00
5500;BME280;2772;42.700;23.304;2023-01-31T04:53:14;94829.34;;;1.55;100.00
5500;BME280;2772;42.700;23.304;2023-01-31T04:55:41;94826.19;;;1.53;100.00
5500;BME280;2772;42.700;23.304;2023-01-31T04:58:09;94823.53;;;1.43;100.00
5500;BME280;2772;42.700;23.304;2023-01-31T05:00:36;94814.41;;;1.56;100.00
5500;BME280;2772;42.700;23.304;2023-01-31T05:03:02;94828.88;;;1.69;100.00
5500;BME280;2772;42.700;23.304;2023-01-31T05:05:29;94821.25;;;1.62;100.00
5500;BME280;2772;42.700;23.304;2023-01-31T05:07:56;94828.88;;;1.74;100.00
5500;BME280;2772;42.700;23.304;2023-01-31T05:10:22;94827.03;;;1.74;100.00
5500;BME280;2772;42.700;23.304;2023-01-31T05:12:49;94833.41;;;1.93;100.00
5500;BME280;2772;42.700;23.304;2023-01-31T05:15:18;94833.16;;;2.00;100.00
5500;BME280;2772;42.700;23.304;2023-01-31T05:17:50;94824.19;;;1.91;100.00
5500;BME280;2772;42.700;23.304;2023-01-31T05:20:18;94825.22;;;1.85;100.00
5500;BME280;2772;42.700;23.304;2023-01-31T05:22:46;94820.75;;;1.75;100.00
5500;BME280;2772;42.700;23.304;2023-01-31T05:25:13;94826.81;;;1.81;100.00
5500;BME280;2772;42.700;23.304;2023-01-31T05:27:40;94825.72;;;1.77;100.00
5500;BME280;2772;42.700;23.304;2023-01-31T05:30:10;94828.41;;;1.87;100.00
5500;BME280;2772;42.700;23.304;2023-01-31T05:32:39;94833.13;;;1.90;100.00
5500;BME280;2772;42.700;23.304;2023-01-31T05:35:06;94831.81;;;1.87;100.00
5500;BME280;2772;42.700;23.304;2023-01-31T05:37:33;94835.22;;;1.83;100.00
5500;BME280;2772;42.700;23.304;2023-01-31T05:40:00;94833.66;;;1.87;100.00
5500;BME280;2772;42.700;23.304;2023-01-31T05:42:26;94830.75;;;1.88;100.00
5500;BME280;2772;42.700;23.304;2023-01-31T05:44:53;94839.44;;;1.99;100.00
5500;BME280;2772;42.700;23.304;2023-01-31T05:47:20;94847.03;;;1.85;100.00
5500;BME280;2772;42.700;23.304;2023-01-31T05:49:49;94848.63;;;1.91;100.00
5500;BME280;2772;42.700;23.304;2023-01-31T05:52:15;94856.53;;;2.01;100.00
5500;BME280;2772;42.700;23.304;2023-01-31T05:54:42;94854.66;;;1.92;100.00
5500;BME280;2772;42.700;23.304;2023-01-31T05:57:09;94855.97;;;1.84;100.00
5500;BME280;2772;42.700;23.304;2023-01-31T05:59:35;94857.00;;;1.83;100.00
5500;BME280;2772;42.700;23.304;2023-01-31T06:02:02;94865.44;;;1.90;100.00
5500;BME280;2772;42.700;23.304;2023-01-31T06:04:29;94852.25;;;1.80;100.00
5500;BME280;2772;42.700;23.304;2023-01-31T06:06:57;94853.34;;;1.89;100.00
5500;BME280;2772;42.700;23.304;2023-01-31T06:09:23;94856.78;;;1.95;100.00
5500;BME280;2772;42.700;23.304;2023-01-31T06:11:50;94865.72;;;2.04;100.00
5500;BME280;2772;42.700;23.304;2023-01-31T06:14:17;94854.41;;;2.03;100.00
5500;BME280;2772;42.700;23.304;2023-01-31T06:16:43;94849.19;;;1.98;100.00
5500;BME280;2772;42.700;23.304;2023-01-31T06:19:10;94853.16;;;2.11;100.00
5500;BME280;2772;42.700;23.304;2023-01-31T06:21:37;94864.72;;;2.25;100.00
5500;BME280;2772;42.700;23.304;2023-01-31T06:24:06;94871.31;;;2.32;100.00
5500;BME280;2772;42.700;23.304;2023-01-31T06:26:33;94864.44;;;2.31;100.00
5500;BME280;2772;42.700;23.304;2023-01-31T06:28:59;94866.06;;;2.37;100.00
5500;BME280;2772;42.700;23.304;2023-01-31T06:31:26;94857.91;;;2.44;100.00
5500;BME280;2772;42.700;23.304;2023-01-31T06:33:53;94859.47;;;2.50;100.00
5500;BME280;2772;42.700;23.304;2023-01-31T06:36:20;94867.88;;;2.47;100.00
5500;BME280;2772;42.700;23.304;2023-01-31T06:38:50;94856.84;;;2.40;100.00
5500;BME280;2772;42.700;23.304;2023-01-31T06:41:18;94868.16;;;2.35;100.00
5500;BME280;2772;42.700;23.304;2023-01-31T06:43:45;94862.63;;;2.37;100.00
5500;BME280;2772;42.700;23.304;2023-01-31T06:46:12;94871.81;;;2.39;100.00
5500;BME280;2772;42.700;23.304;2023-01-31T06:48:39;94877.59;;;2.36;100.00
5500;BME280;2772;42.700;23.304;2023-01-31T06:51:05;94870.78;;;2.45;100.00
5500;BME280;2772;42.700;23.304;2023-01-31T06:53:32;94866.88;;;2.53;100.00
5500;BME280;2772;42.700;23.304;2023-01-31T06:55:58;94865.00;;;2.53;100.00
5500;BME280;2772;42.700;23.304;2023-01-31T06:58:27;94873.16;;;2.57;100.00
5500;BME280;2772;42.700;23.304;2023-01-31T07:00:53;94876.06;;;2.60;100.00
5500;BME280;2772;42.700;23.304;2023-01-31T07:03:20;94882.63;;;2.68;100.00
5500;BME280;2772;42.700;23.304;2023-01-31T07:05:48;94877.38;;;2.63;100.00
5500;BME280;2772;42.700;23.304;2023-01-31T07:08:14;94883.66;;;2.72;100.00
5500;BME280;2772;42.700;23.304;2023-01-31T07:10:41;94880.53;;;2.80;100.00
5500;BME280;2772;42.700;23.304;2023-01-31T07:13:08;94878.97;;;2.79;100.00
5500;BME280;2772;42.700;23.304;2023-01-31T07:15:36;94885.25;;;2.83;100.00
5500;BME280;2772;42.700;23.304;2023-01-31T07:18:03;94886.84;;;2.84;100.00
5500;BME280;2772;42.700;23.304;2023-01-31T07:20:30;94897.88;;;2.91;100.00
5500;BME280;2772;42.700;23.304;2023-01-31T07:22:58;94889.97;;;2.86;100.00
5500;BME280;2772;42.700;23.304;2023-01-31T07:25:25;94890.00;;;2.96;100.00
5500;BME280;2772;42.700;23.304;2023-01-31T07:27:52;94892.09;;;2.89;100.00
5500;BME280;2772;42.700;23.304;2023-01-31T07:30:19;94896.81;;;2.97;100.00
5500;BME280;2772;42.700;23.304;2023-01-31T07:32:47;94886.28;;;2.97;100.00
5500;BME280;2772;42.700;23.304;2023-01-31T07:35:14;94897.28;;;3.39;100.00
5500;BME280;2772;42.700;23.304;2023-01-31T07:37:40;94889.91;;;3.46;100.00
5500;BME280;2772;42.700;23.304;2023-01-31T07:40:09;94897.28;;;3.39;100.00
5500;BME280;2772;42.700;23.304;2023-01-31T07:42:36;94890.50;;;3.18;100.00
5500;BME280;2772;42.700;23.304;2023-01-31T07:45:03;94910.50;;;3.09;100.00
5500;BME280;2772;42.700;23.304;2023-01-31T07:47:30;94916.56;;;2.99;100.00
5500;BME280;2772;42.700;23.304;2023-01-31T07:49:58;94901.03;;;2.93;100.00
5500;BME280;2772;42.700;23.304;2023-01-31T07:52:25;94893.16;;;2.88;100.00
5500;BME280;2772;42.700;23.304;2023-01-31T07:54:51;94899.19;;;2.88;100.00
5500;BME280;2772;42.700;23.304;2023-01-31T07:57:18;94897.34;;;2.89;100.00
5500;BME280;2772;42.700;23.304;2023-01-31T07:59:45;94893.09;;;3.38;100.00
5500;BME280;2772;42.700;23.304;2023-01-31T08:02:13;94895.19;;;3.46;100.00
5500;BME280;2772;42.700;23.304;2023-01-31T08:04:59;94896.22;;;3.55;100.00
5500;BME280;2772;42.700;23.304;2023-01-31T08:07:26;94894.91;;;3.43;100.00
5500;BME280;2772;42.700;23.304;2023-01-31T08:09:54;94890.84;;;3.90;100.00
5500;BME280;2772;42.700;23.304;2023-01-31T08:12:20;94885.03;;;3.93;100.00
5500;BME280;2772;42.700;23.304;2023-01-31T08:14:47;94904.22;;;4.04;100.00
5500;BME280;2772;42.700;23.304;2023-01-31T08:17:14;94901.59;;;3.99;100.00
5500;BME280;2772;42.700;23.304;2023-01-31T08:19:40;94900.09;;;3.78;100.00
5500;BME280;2772;42.700;23.304;2023-01-31T08:22:08;94892.97;;;3.73;100.00
5500;BME280;2772;42.700;23.304;2023-01-31T08:24:35;94888.31;;;3.60;100.00
5500;BME280;2772;42.700;23.304;2023-01-31T08:27:02;94886.22;;;3.47;100.00
5500;BME280;2772;42.700;23.304;2023-01-31T08:29:29;94880.66;;;3.64;100.00
5500;BME280;2772;42.700;23.304;2023-01-31T08:31:56;94890.38;;;3.68;100.00
5500;BME280;2772;42.700;23.304;2023-01-31T08:34:22;94882.41;;;3.88;100.00
5500;BME280;2772;42.700;23.304;2023-01-31T08:36:49;94893.22;;;3.87;100.00
5500;BME280;2772;42.700;23.304;2023-01-31T08:39:17;94886.34;;;3.91;100.00
5500;BME280;2772;42.700;23.304;2023-01-31T08:41:44;94891.88;;;3.89;100.00
5500;BME280;2772;42.700;23.304;2023-01-31T08:44:12;94893.47;;;3.90;100.00
5500;BME280;2772;42.700;23.304;2023-01-31T08:46:39;94899.28;;;3.82;100.00
5500;BME280;2772;42.700;23.304;2023-01-31T08:49:06;94900.31;;;3.86;100.00
5500;BME280;2772;42.700;23.304;2023-01-31T08:51:33;94908.22;;;3.81;100.00
5500;BME280;2772;42.700;23.304;2023-01-31T08:54:00;94900.88;;;3.78;100.00
5500;BME280;2772;42.700;23.304;2023-01-31T08:56:28;94896.16;;;3.75;100.00
5500;BME280;2772;42.700;23.304;2023-01-31T08:58:56;94886.16;;;3.67;100.00
5500;BME280;2772;42.700;23.304;2023-01-31T09:01:22;94886.69;;;3.69;100.00
5500;BME280;2772;42.700;23.304;2023-01-31T09:03:49;94894.88;;;3.63;100.00
5500;BME280;2772;42.700;23.304;2023-01-31T09:06:22;94899.03;;;3.74;100.00
5500;BME280;2772;42.700;23.304;2023-01-31T09:08:49;94900.06;;;3.83;100.00
5500;BME280;2772;42.700;23.304;2023-01-31T09:11:16;94900.09;;;3.78;100.00
5500;BME280;2772;42.700;23.304;2023-01-31T09:13:45;94901.84;;;4.02;100.00
5500;BME280;2772;42.700;23.304;2023-01-31T09:16:13;94899.22;;;4.02;100.00
5500;BME280;2772;42.700;23.304;2023-01-31T09:18:40;94892.13;;;3.98;100.00
5500;BME280;2772;42.700;23.304;2023-01-31T09:21:09;94880.97;;;4.11;100.00
5500;BME280;2772;42.700;23.304;2023-01-31T09:23:37;94875.50;;;4.02;100.00
5500;BME280;2772;42.700;23.304;2023-01-31T09:26:04;94887.34;;;4.00;100.00
5500;BME280;2772;42.700;23.304;2023-01-31T09:28:31;94877.78;;;4.19;100.00
5500;BME280;2772;42.700;23.304;2023-01-31T09:31:03;94870.66;;;4.24;100.00
5500;BME280;2772;42.700;23.304;2023-01-31T09:33:30;94879.03;;;4.31;100.00
5500;BME280;2772;42.700;23.304;2023-01-31T09:35:59;94871.56;;;4.43;100.00
5500;BME280;2772;42.700;23.304;2023-01-31T09:38:26;94858.94;;;4.40;100.00
5500;BME280;2772;42.700;23.304;2023-01-31T09:43:24;94876.75;;;4.58;100.00
5500;BME280;2772;42.700;23.304;2023-01-31T09:45:55;94861.97;;;4.57;100.00
5500;BME280;2772;42.700;23.304;2023-01-31T09:48:25;94857.78;;;4.56;100.00
5500;BME280;2772;42.700;23.304;2023-01-31T09:50:55;94849.47;;;4.39;100.00
5500;BME280;2772;42.700;23.304;2023-01-31T09:53:28;94841.38;;;4.31;100.00
5500;BME280;2772;42.700;23.304;2023-01-31T09:56:08;94843.47;;;4.29;100.00
5500;BME280;2772;42.700;23.304;2023-01-31T09:58:46;94844.50;;;4.33;100.00
5500;BME280;2772;42.700;23.304;2023-01-31T10:01:18;94859.47;;;4.42;100.00
5500;BME280;2772;42.700;23.304;2023-01-31T10:04:04;94856.25;;;4.50;100.00
5500;BME280;2772;42.700;23.304;2023-01-31T10:06:42;94850.72;;;4.47;100.00
5500;BME280;2772;42.700;23.304;2023-01-31T10:09:14;94845.41;;;4.52;100.00
5500;BME280;2772;42.700;23.304;2023-01-31T10:11:44;94837.22;;;4.53;100.00
5500;BME280;2772;42.700;23.304;2023-01-31T10:14:20;94846.16;;;4.57;100.00
5500;BME280;2772;42.700;23.304;2023-01-31T10:16:59;94838.34;;;4.47;100.00
5500;BME280;2772;42.700;23.304;2023-01-31T10:19:31;94851.78;;;4.46;100.00
5500;BME280;2772;42.700;23.304;2023-01-31T10:22:04;94836.28;;;4.39;100.00
5500;BME280;2772;42.700;23.304;2023-01-31T10:24:37;94841.97;;;4.56;100.00
5500;BME280;2772;42.700;23.304;2023-01-31T10:27:09;94837.88;;;4.74;100.00
5500;BME280;2772;42.700;23.304;2023-01-31T10:29:41;94832.97;;;4.91;100.00
5500;BME280;2772;42.700;23.304;2023-01-31T10:32:17;94837.97;;;5.21;100.00
5500;BME280;2772;42.700;23.304;2023-01-31T10:34:48;94824.56;;;5.18;100.00
5500;BME280;2772;42.700;23.304;2023-01-31T10:37:23;94831.22;;;5.10;100.00
5500;BME280;2772;42.700;23.304;2023-01-31T10:39:54;94824.19;;;5.01;100.00
5500;BME280;2772;42.700;23.304;2023-01-31T10:42:28;94825.94;;;4.81;100.00
5500;BME280;2772;42.700;23.304;2023-01-31T10:45:01;94827.38;;;4.98;100.00
5500;BME280;2772;42.700;23.304;2023-01-31T10:47:31;94824.34;;;5.09;100.00
5500;BME280;2772;42.700;23.304;2023-01-31T10:49:58;94825.44;;;5.08;100.00
5500;BME280;2772;42.700;23.304;2023-01-31T10:52:47;94831.78;;;5.07;100.00
5500;BME280;2772;42.700;23.304;2023-01-31T10:55:29;94837.78;;;5.13;100.00
5500;BME280;2772;42.700;23.304;2023-01-31T10:58:01;94838.31;;;5.15;100.00
5500;BME280;2772;42.700;23.304;2023-01-31T11:00:31;94821.78;;;5.04;100.00
5500;BME280;2772;42.700;23.304;2023-01-31T11:02:58;94828.50;;;4.92;100.00
5500;BME280;2772;42.700;23.304;2023-01-31T11:05:27;94823.44;;;4.95;100.00
5500;BME280;2772;42.700;23.304;2023-01-31T11:07:56;94835.66;;;4.86;100.00
5500;BME280;2772;42.700;23.304;2023-01-31T11:10:24;94835.25;;;5.03;100.00
5500;BME280;2772;42.700;23.304;2023-01-31T11:12:53;94833.03;;;5.15;100.00
5500;BME280;2772;42.700;23.304;2023-01-31T11:15:23;94830.97;;;5.35;100.00
5500;BME280;2772;42.700;23.304;2023-01-31T11:17:52;94832.25;;;5.38;100.00
5500;BME280;2772;42.700;23.304;2023-01-31T11:20:24;94832.88;;;5.30;100.00
5500;BME280;2772;42.700;23.304;2023-01-31T11:22:53;94833.16;;;5.28;100.00
5500;BME280;2772;42.700;23.304;2023-01-31T11:25:22;94827.78;;;5.38;100.00
5500;BME280;2772;42.700;23.304;2023-01-31T11:27:52;94843.84;;;5.42;100.00
5500;BME280;2772;42.700;23.304;2023-01-31T11:30:21;94840.03;;;5.29;100.00
5500;BME280;2772;42.700;23.304;2023-01-31T11:32:51;94842.47;;;5.21;100.00
5500;BME280;2772;42.700;23.304;2023-01-31T11:35:24;94849.97;;;5.09;100.00
5500;BME280;2772;42.700;23.304;2023-01-31T11:37:53;94844.78;;;4.99;100.00
5500;BME280;2772;42.700;23.304;2023-01-31T11:40:23;94850.84;;;4.65;100.00
5500;BME280;2772;42.700;23.304;2023-01-31T11:42:52;94845.56;;;4.65;100.00
5500;BME280;2772;42.700;23.304;2023-01-31T11:45:20;94845.56;;;4.65;100.00
5500;BME280;2772;42.700;23.304;2023-01-31T11:47:49;94840.41;;;4.55;100.00
5500;BME280;2772;42.700;23.304;2023-01-31T11:50:23;94845.19;;;4.43;100.00
5500;BME280;2772;42.700;23.304;2023-01-31T11:52:56;94855.16;;;4.51;100.00
5500;BME280;2772;42.700;23.304;2023-01-31T11:55:25;94843.59;;;4.52;100.00
5500;BME280;2772;42.700;23.304;2023-01-31T11:57:57;94834.06;;;4.51;100.00
5500;BME280;2772;42.700;23.304;2023-01-31T12:00:26;94836.22;;;4.49;100.00
5500;BME280;2772;42.700;23.304;2023-01-31T12:02:59;94834.59;;;4.53;100.00
5500;BME280;2772;42.700;23.304;2023-01-31T12:05:35;94831.03;;;4.34;100.00
5500;BME280;2772;42.700;23.304;2023-01-31T12:08:03;94837.94;;;4.30;100.00
5500;BME280;2772;42.700;23.304;2023-01-31T12:10:34;94833.47;;;4.26;100.00
5500;BME280;2772;42.700;23.304;2023-01-31T12:13:10;94836.28;;;4.39;100.00
5500;BME280;2772;42.700;23.304;2023-01-31T12:15:45;94836.50;;;4.48;100.00
5500;BME280;2772;42.700;23.304;2023-01-31T12:18:19;94835.56;;;4.29;100.00
5500;BME280;2772;42.700;23.304;2023-01-31T12:20:52;94842.28;;;4.06;100.00
5500;BME280;2772;42.700;23.304;2023-01-31T12:23:32;94836.41;;;4.19;100.00
5500;BME280;2772;42.700;23.304;2023-01-31T12:26:08;94841.59;;;4.29;100.00
5500;BME280;2772;42.700;23.304;2023-01-31T12:28:50;94836.59;;;4.33;100.00
5500;BME280;2772;42.700;23.304;2023-01-31T12:31:44;94823.22;;;4.24;100.00
5500;BME280;2772;42.700;23.304;2023-01-31T12:34:25;94825.88;;;4.19;100.00
5500;BME280;2772;42.700;23.304;2023-01-31T12:37:14;94825.88;;;4.19;100.00
5500;BME280;2772;42.700;23.304;2023-01-31T12:39:58;94826.16;;;4.13;100.00
5500;BME280;2772;42.700;23.304;2023-01-31T12:42:37;94834.84;;;4.18;100.00
5500;BME280;2772;42.700;23.304;2023-01-31T12:45:21;94840.88;;;4.24;100.00
5500;BME280;2772;42.700;23.304;2023-01-31T12:51:10;94840.03;;;4.33;100.00
5500;BME280;2772;42.700;23.304;2023-01-31T12:53:48;94840.47;;;4.40;100.00
5500;BME280;2772;42.700;23.304;2023-01-31T12:56:38;94832.72;;;4.20;100.00
5500;BME280;2772;42.700;23.304;2023-01-31T12:59:19;94831.69;;;4.16;100.00
5500;BME280;2772;42.700;23.304;2023-01-31T13:01:52;94836.44;;;4.14;100.00
5500;BME280;2772;42.700;23.304;2023-01-31T13:04:34;94831.88;;;4.30;100.00
5500;BME280;2772;42.700;23.304;2023-01-31T13:07:07;94834.78;;;4.28;100.00
5500;BME280;2772;42.700;23.304;2023-01-31T13:09:38;94828.97;;;4.26;100.00
5500;BME280;2772;42.700;23.304;2023-01-31T13:12:10;94835.97;;;4.46;100.00
5500;BME280;2772;42.700;23.304;2023-01-31T13:14:41;94848.50;;;4.64;100.00
5500;BME280;2772;42.700;23.304;2023-01-31T13:17:11;94838.75;;;4.64;100.00
5500;BME280;2772;42.700;23.304;2023-01-31T13:19:42;94848.50;;;4.64;100.00
5500;BME280;2772;42.700;23.304;2023-01-31T13:22:18;94854.25;;;4.71;100.00
5500;BME280;2772;42.700;23.304;2023-01-31T13:24:50;94844.28;;;4.63;100.00
5500;BME280;2772;42.700;23.304;2023-01-31T13:27:23;94854.69;;;4.49;100.00
5500;BME280;2772;42.700;23.304;2023-01-31T13:29:56;94854.47;;;4.41;100.00
5500;BME280;2772;42.700;23.304;2023-01-31T13:32:27;94852.78;;;4.11;100.00
5500;BME280;2772;42.700;23.304;2023-01-31T13:34:59;94855.38;;;4.21;100.00